createdAt,value
2018-08-24T00:00:35.020Z,0
2018-08-24T00:01:35.585Z,0
2018-08-24T00:02:36.148Z,0
2018-08-24T00:03:36.710Z,0
2018-08-24T00:04:37.256Z,0
2018-08-24T00:05:37.811Z,0
2018-08-24T00:06:38.367Z,0
2018-08-24T00:07:38.920Z,0
2018-08-24T00:08:39.472Z,0
2018-08-24T00:09:40.021Z,0
2018-08-24T00:10:40.587Z,0
2018-08-24T00:11:41.134Z,0
2018-08-24T00:12:41.688Z,0
2018-08-24T00:13:42.241Z,0
2018-08-24T00:14:42.796Z,0
2018-08-24T00:15:43.347Z,0
2018-08-24T00:16:43.901Z,0
2018-08-24T00:17:44.447Z,0
2018-08-24T00:18:44.994Z,0
2018-08-24T00:19:45.546Z,0
2018-08-24T00:20:46.091Z,0
2018-08-24T00:21:46.645Z,0
2018-08-24T00:22:47.198Z,0
2018-08-24T00:23:47.748Z,0
2018-08-24T00:24:48.300Z,0
2018-08-24T00:25:48.851Z,0
2018-08-24T00:26:49.403Z,0
2018-08-24T00:27:49.958Z,0
2018-08-24T00:28:50.511Z,0
2018-08-24T00:29:51.062Z,0
2018-08-24T00:30:51.605Z,0
2018-08-24T00:31:52.198Z,0
2018-08-24T00:32:52.711Z,0
2018-08-24T00:33:53.258Z,0
2018-08-24T00:34:53.811Z,0
2018-08-24T00:35:54.366Z,0
2018-08-24T00:36:54.919Z,0
2018-08-24T00:37:55.467Z,0
2018-08-24T00:38:56.017Z,0
2018-08-24T00:39:56.600Z,0
2018-08-24T00:40:57.127Z,0
2018-08-24T00:41:57.679Z,0
2018-08-24T00:42:58.232Z,0
2018-08-24T00:43:58.784Z,0
2018-08-24T00:44:59.338Z,0
2018-08-24T00:45:59.884Z,0
2018-08-24T00:47:00.431Z,0
2018-08-24T00:48:00.984Z,0
2018-08-24T00:49:01.537Z,0
2018-08-24T00:50:02.094Z,0
2018-08-24T00:51:02.641Z,0
2018-08-24T00:52:03.194Z,0
2018-08-24T00:53:03.754Z,0
2018-08-24T00:54:04.305Z,0
2018-08-24T00:55:04.852Z,0
2018-08-24T00:56:05.408Z,0
2018-08-24T00:57:05.952Z,0
2018-08-24T00:58:06.507Z,0
2018-08-24T00:59:07.059Z,0
2018-08-24T01:00:07.609Z,0
2018-08-24T01:01:08.174Z,0
2018-08-24T01:02:08.714Z,0
2018-08-24T01:03:09.266Z,0
2018-08-24T01:04:09.820Z,0
2018-08-24T01:05:10.378Z,0
2018-08-24T01:06:10.928Z,0
2018-08-24T01:07:11.481Z,0
2018-08-24T01:08:12.027Z,0
2018-08-24T01:09:12.582Z,0
2018-08-24T01:10:13.135Z,0
2018-08-24T01:11:13.683Z,0
2018-08-24T01:12:14.239Z,0
2018-08-24T01:13:14.791Z,0
2018-08-24T01:14:15.335Z,0
2018-08-24T01:15:15.884Z,0
2018-08-24T01:16:16.441Z,0
2018-08-24T01:17:16.991Z,0
2018-08-24T01:18:17.544Z,0
2018-08-24T01:19:18.090Z,0
2018-08-24T01:20:18.642Z,0
2018-08-24T01:21:19.197Z,0
2018-08-24T01:22:19.748Z,0
2018-08-24T01:23:20.295Z,0
2018-08-24T01:24:20.850Z,0
2018-08-24T01:25:21.404Z,0
2018-08-24T01:26:21.962Z,0
2018-08-24T01:27:22.508Z,0
2018-08-24T01:28:23.061Z,0
2018-08-24T01:29:23.616Z,0
2018-08-24T01:30:24.161Z,0
2018-08-24T01:31:24.716Z,0
2018-08-24T01:32:25.267Z,0
2018-08-24T01:33:25.820Z,0
2018-08-24T01:34:26.366Z,0
2018-08-24T01:35:26.919Z,0
2018-08-24T01:36:27.474Z,0
2018-08-24T01:37:28.027Z,0
2018-08-24T01:38:28.579Z,0
2018-08-24T01:39:29.129Z,0
2018-08-24T01:40:29.684Z,0
2018-08-24T01:41:30.245Z,0
2018-08-24T01:42:30.802Z,0
2018-08-24T01:43:31.381Z,0
2018-08-24T01:44:31.924Z,0
2018-08-24T01:45:32.477Z,0
2018-08-24T01:46:33.031Z,0
2018-08-24T01:47:33.582Z,0
2018-08-24T01:48:34.135Z,0
2018-08-24T01:49:34.690Z,0
2018-08-24T01:50:35.247Z,0
2018-08-24T01:51:35.797Z,0
2018-08-24T01:52:36.346Z,0
2018-08-24T01:53:36.902Z,0
2018-08-24T01:54:37.453Z,0
2018-08-24T01:55:38.006Z,0
2018-08-24T01:56:38.552Z,0
2018-08-24T01:57:39.096Z,0
2018-08-24T01:58:39.649Z,0
2018-08-24T01:59:40.205Z,0
2018-08-24T02:00:40.752Z,0
2018-08-24T02:01:41.300Z,0
2018-08-24T02:02:41.856Z,0
2018-08-24T02:03:42.408Z,0
2018-08-24T02:04:42.950Z,0
2018-08-24T02:05:43.494Z,0
2018-08-24T02:06:44.041Z,0
2018-08-24T02:07:44.596Z,0
2018-08-24T02:08:45.148Z,0
2018-08-24T02:09:45.708Z,0
2018-08-24T02:10:46.245Z,0
2018-08-24T02:11:46.796Z,0
2018-08-24T02:12:47.349Z,0
2018-08-24T02:13:47.903Z,0
2018-08-24T02:14:48.452Z,0
2018-08-24T02:15:49.005Z,0
2018-08-24T02:16:49.557Z,0
2018-08-24T02:17:50.111Z,0
2018-08-24T02:18:50.658Z,0
2018-08-24T02:19:51.208Z,0
2018-08-24T02:20:51.761Z,0
2018-08-24T02:21:52.307Z,0
2018-08-24T02:22:52.859Z,0
2018-08-24T02:23:53.414Z,0
2018-08-24T02:24:53.966Z,0
2018-08-24T02:25:54.519Z,0
2018-08-24T02:26:55.073Z,0
2018-08-24T02:27:55.627Z,0
2018-08-24T02:28:56.180Z,0
2018-08-24T02:29:56.735Z,0
2018-08-24T02:30:57.288Z,0
2018-08-24T02:31:57.840Z,0
2018-08-24T02:32:58.392Z,0
2018-08-24T02:33:58.949Z,0
2018-08-24T02:34:59.503Z,0
2018-08-24T02:36:00.058Z,0
2018-08-24T02:37:00.619Z,0
2018-08-24T02:38:01.160Z,0
2018-08-24T02:39:01.705Z,0
2018-08-24T02:40:02.259Z,0
2018-08-24T02:41:02.813Z,0
2018-08-24T02:42:03.361Z,0
2018-08-24T02:43:03.914Z,0
2018-08-24T02:44:04.471Z,0
2018-08-24T02:45:05.075Z,0
2018-08-24T02:46:05.564Z,0
2018-08-24T02:47:06.120Z,0
2018-08-24T02:48:06.663Z,0
2018-08-24T02:49:07.219Z,0
2018-08-24T02:50:07.774Z,0
2018-08-24T02:51:08.327Z,0
2018-08-24T02:52:08.882Z,0
2018-08-24T02:53:09.435Z,0
2018-08-24T02:54:09.990Z,0
2018-08-24T02:55:10.549Z,0
2018-08-24T02:56:11.094Z,0
2018-08-24T02:57:11.691Z,0
2018-08-24T02:58:12.201Z,0
2018-08-24T02:59:12.753Z,0
2018-08-24T03:00:13.308Z,0
2018-08-24T03:01:13.862Z,0
2018-08-24T03:02:14.413Z,0
2018-08-24T03:03:14.967Z,0
2018-08-24T03:04:15.523Z,0
2018-08-24T03:05:16.108Z,0
2018-08-24T03:06:16.616Z,0
2018-08-24T03:07:17.169Z,0
2018-08-24T03:08:17.754Z,0
2018-08-24T03:09:18.272Z,0
2018-08-24T03:10:18.820Z,0
2018-08-24T03:11:19.372Z,0
2018-08-24T03:12:19.930Z,0
2018-08-24T03:13:20.479Z,0
2018-08-24T03:14:21.032Z,0
2018-08-24T03:15:21.585Z,0
2018-08-24T03:16:22.168Z,0
2018-08-24T03:17:22.693Z,0
2018-08-24T03:18:23.243Z,0
2018-08-24T03:19:23.794Z,0
2018-08-24T03:20:24.346Z,0
2018-08-24T03:21:24.895Z,0
2018-08-24T03:22:25.452Z,0
2018-08-24T03:23:26.002Z,0
2018-08-24T03:24:26.556Z,0
2018-08-24T03:25:27.110Z,0
2018-08-24T03:26:27.664Z,0
2018-08-24T03:27:28.216Z,0
2018-08-24T03:28:28.765Z,0
2018-08-24T03:29:29.320Z,0
2018-08-24T03:30:29.875Z,0
2018-08-24T03:31:30.429Z,0
2018-08-24T03:32:30.979Z,0
2018-08-24T03:33:31.535Z,0
2018-08-24T03:34:32.089Z,0
2018-08-24T03:35:32.640Z,0
2018-08-24T03:36:33.187Z,0
2018-08-24T03:37:33.742Z,0
2018-08-24T03:38:34.296Z,0
2018-08-24T03:39:34.847Z,0
2018-08-24T03:40:35.391Z,0
2018-08-24T03:41:35.946Z,0
2018-08-24T03:42:36.492Z,0
2018-08-24T03:43:37.045Z,0
2018-08-24T03:44:37.601Z,0
2018-08-24T03:45:38.152Z,0
2018-08-24T03:46:38.699Z,0
2018-08-24T03:47:39.256Z,0
2018-08-24T03:48:39.808Z,0
2018-08-24T03:49:40.364Z,0
2018-08-24T03:50:40.920Z,0
2018-08-24T03:51:41.469Z,0
2018-08-24T03:52:42.043Z,0
2018-08-24T03:53:42.563Z,0
2018-08-24T03:54:43.111Z,0
2018-08-24T03:55:43.665Z,0
2018-08-24T03:56:44.215Z,0
2018-08-24T03:57:44.767Z,0
2018-08-24T03:58:45.314Z,0
2018-08-24T03:59:45.867Z,0
2018-08-24T04:00:46.422Z,0
2018-08-24T04:01:46.977Z,0
2018-08-24T04:02:47.528Z,0
2018-08-24T04:03:48.082Z,0
2018-08-24T04:04:48.629Z,0
2018-08-24T04:05:49.185Z,0
2018-08-24T04:06:49.736Z,4
2018-08-24T04:07:50.290Z,4
2018-08-24T04:08:50.843Z,4
2018-08-24T04:09:51.403Z,0
2018-08-24T04:10:51.952Z,4
2018-08-24T04:11:52.503Z,4
2018-08-24T04:12:53.067Z,4
2018-08-24T04:13:53.625Z,8
2018-08-24T04:14:54.160Z,8
2018-08-24T04:15:54.712Z,12
2018-08-24T04:16:55.271Z,16
2018-08-24T04:17:55.823Z,20
2018-08-24T04:18:56.395Z,24
2018-08-24T04:19:56.935Z,24
2018-08-24T04:20:57.493Z,28
2018-08-24T04:21:58.049Z,36
2018-08-24T04:22:58.595Z,36
2018-08-24T04:23:59.145Z,36
2018-08-24T04:24:59.700Z,44
2018-08-24T04:26:00.296Z,52
2018-08-24T04:27:00.803Z,52
2018-08-24T04:28:01.359Z,56
2018-08-24T04:29:01.903Z,56
2018-08-24T04:30:02.457Z,48
2018-08-24T04:31:03.011Z,56
2018-08-24T04:32:03.566Z,76
2018-08-24T04:33:04.121Z,84
2018-08-24T04:34:04.670Z,88
2018-08-24T04:35:05.304Z,76
2018-08-24T04:36:05.775Z,72
2018-08-24T04:37:06.331Z,92
2018-08-24T04:38:06.891Z,112
2018-08-24T04:39:07.443Z,116
2018-08-24T04:40:08.003Z,144
2018-08-24T04:41:08.557Z,176
2018-08-24T04:42:09.112Z,224
2018-08-24T04:43:09.666Z,248
2018-08-24T04:44:10.218Z,276
2018-08-24T04:45:10.774Z,280
2018-08-24T04:46:11.324Z,328
2018-08-24T04:47:11.881Z,372
2018-08-24T04:48:12.440Z,384
2018-08-24T04:49:12.997Z,408
2018-08-24T04:50:13.552Z,468
2018-08-24T04:51:14.113Z,508
2018-08-24T04:52:14.661Z,556
2018-08-24T04:53:15.218Z,608
2018-08-24T04:54:15.777Z,640
2018-08-24T04:55:16.335Z,684
2018-08-24T04:56:16.891Z,724
2018-08-24T04:57:17.448Z,752
2018-08-24T04:58:18.097Z,760
2018-08-24T04:59:18.555Z,716
2018-08-24T05:00:19.110Z,676
2018-08-24T05:01:19.668Z,660
2018-08-24T05:02:20.227Z,664
2018-08-24T05:03:20.789Z,616
2018-08-24T05:04:21.347Z,540
2018-08-24T05:05:21.903Z,580
2018-08-24T05:06:22.470Z,688
2018-08-24T05:07:23.027Z,600
2018-08-24T05:08:23.586Z,484
2018-08-24T05:09:24.150Z,496
2018-08-24T05:10:24.706Z,592
2018-08-24T05:11:25.261Z,696
2018-08-24T05:12:25.816Z,792
2018-08-24T05:13:26.371Z,820
2018-08-24T05:14:26.930Z,768
2018-08-24T05:15:27.491Z,768
2018-08-24T05:16:28.046Z,680
2018-08-24T05:17:28.638Z,648
2018-08-24T05:18:29.182Z,648
2018-08-24T05:19:29.740Z,668
2018-08-24T05:20:30.332Z,852
2018-08-24T05:21:30.919Z,900
2018-08-24T05:22:31.429Z,1056
2018-08-24T05:23:31.981Z,1064
2018-08-24T05:24:32.533Z,776
2018-08-24T05:25:33.093Z,696
2018-08-24T05:26:33.648Z,948
2018-08-24T05:27:34.197Z,924
2018-08-24T05:28:34.747Z,1020
2018-08-24T05:29:35.305Z,996
2018-08-24T05:30:35.853Z,984
2018-08-24T05:31:36.422Z,1180
2018-08-24T05:32:37.018Z,1508
2018-08-24T05:33:37.550Z,1856
2018-08-24T05:34:38.114Z,2116
2018-08-24T05:35:38.710Z,2232
2018-08-24T05:36:39.250Z,2064
2018-08-24T05:37:39.814Z,1720
2018-08-24T05:38:40.375Z,1660
2018-08-24T05:39:40.937Z,1836
2018-08-24T05:40:41.500Z,2028
2018-08-24T05:41:42.047Z,2112
2018-08-24T05:42:42.606Z,2116
2018-08-24T05:43:43.154Z,2032
2018-08-24T05:44:43.705Z,1904
2018-08-24T05:45:44.272Z,1800
2018-08-24T05:46:44.821Z,1752
2018-08-24T05:47:45.381Z,1764
2018-08-24T05:48:45.965Z,1908
2018-08-24T05:49:46.501Z,2192
2018-08-24T05:50:47.067Z,2452
2018-08-24T05:51:47.627Z,2564
2018-08-24T05:52:48.176Z,2836
2018-08-24T05:53:48.726Z,3468
2018-08-24T05:54:49.290Z,4152
2018-08-24T05:55:49.911Z,4472
2018-08-24T05:56:50.412Z,4584
2018-08-24T05:57:50.964Z,4684
2018-08-24T05:58:51.523Z,4808
2018-08-24T05:59:52.079Z,4936
2018-08-24T06:00:52.637Z,4996
2018-08-24T06:01:53.200Z,4988
2018-08-24T06:02:53.759Z,4804
2018-08-24T06:03:54.310Z,4408
2018-08-24T06:04:54.877Z,4060
2018-08-24T06:05:55.435Z,3832
2018-08-24T06:06:55.986Z,3612
2018-08-24T06:07:56.545Z,3240
2018-08-24T06:08:57.108Z,2848
2018-08-24T06:09:57.666Z,2820
2018-08-24T06:10:58.220Z,3168
2018-08-24T06:11:58.773Z,3340
2018-08-24T06:12:59.326Z,3236
2018-08-24T06:13:59.890Z,3296
2018-08-24T06:15:00.459Z,3420
2018-08-24T06:16:01.099Z,3436
2018-08-24T06:17:01.573Z,3404
2018-08-24T06:18:02.168Z,3576
2018-08-24T06:19:02.691Z,3588
2018-08-24T06:20:03.248Z,3332
2018-08-24T06:21:03.805Z,2976
2018-08-24T06:22:04.365Z,2608
2018-08-24T06:23:04.919Z,2360
2018-08-24T06:24:05.481Z,2284
2018-08-24T06:25:06.040Z,2220
2018-08-24T06:26:06.600Z,2256
2018-08-24T06:27:07.160Z,2304
2018-08-24T06:28:07.717Z,1976
2018-08-24T06:29:08.272Z,1880
2018-08-24T06:30:08.834Z,2256
2018-08-24T06:31:09.394Z,2852
2018-08-24T06:32:09.960Z,3392
2018-08-24T06:33:10.515Z,3316
2018-08-24T06:34:11.077Z,2796
2018-08-24T06:35:11.636Z,2612
2018-08-24T06:36:12.201Z,3224
2018-08-24T06:37:12.757Z,4068
2018-08-24T06:38:13.320Z,5064
2018-08-24T06:39:13.887Z,5748
2018-08-24T06:40:14.449Z,5832
2018-08-24T06:41:15.008Z,5292
2018-08-24T06:42:15.568Z,5804
2018-08-24T06:43:16.129Z,6248
2018-08-24T06:44:16.687Z,6364
2018-08-24T06:45:17.248Z,5804
2018-08-24T06:46:17.798Z,5432
2018-08-24T06:47:18.424Z,5424
2018-08-24T06:48:18.912Z,5572
2018-08-24T06:49:19.471Z,6064
2018-08-24T06:50:20.025Z,6748
2018-08-24T06:51:20.580Z,6764
2018-08-24T06:52:21.139Z,7524
2018-08-24T06:53:21.811Z,6692
2018-08-24T06:54:22.253Z,4512
2018-08-24T06:55:22.816Z,3532
2018-08-24T06:56:23.380Z,4272
2018-08-24T06:57:23.933Z,5256
2018-08-24T06:58:24.523Z,6508
2018-08-24T06:59:25.060Z,7432
2018-08-24T07:00:25.613Z,7856
2018-08-24T07:01:26.175Z,7768
2018-08-24T07:02:26.733Z,6732
2018-08-24T07:03:27.285Z,6216
2018-08-24T07:04:27.838Z,6332
2018-08-24T07:05:28.392Z,6804
2018-08-24T07:06:28.945Z,7236
2018-08-24T07:07:29.501Z,7140
2018-08-24T07:08:30.063Z,6768
2018-08-24T07:09:30.617Z,6328
2018-08-24T07:10:31.216Z,5732
2018-08-24T07:11:31.743Z,5140
2018-08-24T07:12:32.302Z,5000
2018-08-24T07:13:32.863Z,5124
2018-08-24T07:14:33.421Z,4856
2018-08-24T07:15:33.980Z,4472
2018-08-24T07:16:34.545Z,3816
2018-08-24T07:17:35.095Z,2872
2018-08-24T07:18:35.649Z,2272
2018-08-24T07:19:36.213Z,1788
2018-08-24T07:20:36.769Z,1612
2018-08-24T07:21:37.329Z,2220
2018-08-24T07:22:37.890Z,3216
2018-08-24T07:23:38.449Z,4196
2018-08-24T07:24:39.013Z,5512
2018-08-24T07:25:39.571Z,6996
2018-08-24T07:26:40.125Z,7436
2018-08-24T07:27:40.682Z,7052
2018-08-24T07:28:41.233Z,6540
2018-08-24T07:29:41.794Z,5960
2018-08-24T07:30:42.353Z,5476
2018-08-24T07:31:42.917Z,5180
2018-08-24T07:32:43.477Z,5712
2018-08-24T07:33:44.051Z,5724
2018-08-24T07:34:44.601Z,5460
2018-08-24T07:35:45.166Z,6340
2018-08-24T07:36:45.720Z,6376
2018-08-24T07:37:46.280Z,6736
2018-08-24T07:38:46.841Z,6684
2018-08-24T07:39:47.400Z,6800
2018-08-24T07:40:47.966Z,7976
2018-08-24T07:41:48.537Z,8824
2018-08-24T07:42:49.083Z,8892
2018-08-24T07:43:49.641Z,8648
2018-08-24T07:44:50.203Z,7700
2018-08-24T07:45:50.773Z,6440
2018-08-24T07:46:51.335Z,7904
2018-08-24T07:47:51.886Z,7892
2018-08-24T07:48:52.452Z,6908
2018-08-24T07:49:53.012Z,6124
2018-08-24T07:50:53.646Z,7264
2018-08-24T07:51:54.140Z,9240
2018-08-24T07:52:54.702Z,9052
2018-08-24T07:53:55.257Z,7368
2018-08-24T07:54:55.810Z,7216
2018-08-24T07:55:56.367Z,6392
2018-08-24T07:56:56.970Z,6156
2018-08-24T07:57:57.494Z,6084
2018-08-24T07:58:58.048Z,6928
2018-08-24T07:59:58.607Z,7148
2018-08-24T08:00:59.173Z,7112
2018-08-24T08:01:59.729Z,5372
2018-08-24T08:03:00.289Z,5088
2018-08-24T08:04:00.847Z,7252
2018-08-24T08:05:01.407Z,7516
2018-08-24T08:06:01.967Z,6520
2018-08-24T08:07:02.531Z,5732
2018-08-24T08:08:03.085Z,5552
2018-08-24T08:09:03.641Z,6520
2018-08-24T08:10:04.201Z,6948
2018-08-24T08:11:04.751Z,7460
2018-08-24T08:12:05.311Z,6780
2018-08-24T08:13:05.863Z,7292
2018-08-24T08:14:06.422Z,9320
2018-08-24T08:15:06.984Z,12784
2018-08-24T08:16:07.549Z,17288
2018-08-24T08:17:08.105Z,20800
2018-08-24T08:18:08.703Z,23392
2018-08-24T08:19:09.213Z,24224
2018-08-24T08:20:09.776Z,27872
2018-08-24T08:21:10.337Z,37056
2018-08-24T08:22:10.900Z,51104
2018-08-24T08:23:11.461Z,40480
2018-08-24T08:24:12.023Z,38016
2018-08-24T08:25:12.579Z,32640
2018-08-24T08:26:13.141Z,36704
2018-08-24T08:27:13.705Z,27776
2018-08-24T08:28:14.259Z,21984
2018-08-24T08:29:14.815Z,18944
2018-08-24T08:30:15.378Z,18784
2018-08-24T08:31:15.941Z,19008
2018-08-24T08:32:16.499Z,23392
2018-08-24T08:33:17.062Z,38528
2018-08-24T08:34:17.619Z,32960
2018-08-24T08:35:18.181Z,66432
2018-08-24T08:36:18.741Z,63808
2018-08-24T08:37:19.306Z,60288
2018-08-24T08:38:19.885Z,66560
2018-08-24T08:39:20.439Z,67648
2018-08-24T08:40:21.007Z,31968
2018-08-24T08:41:21.576Z,54144
2018-08-24T08:42:22.134Z,19904
2018-08-24T08:43:22.701Z,19680
2018-08-24T08:44:23.267Z,20000
2018-08-24T08:45:23.934Z,20320
2018-08-24T08:46:24.390Z,21408
2018-08-24T08:47:24.955Z,23712
2018-08-24T08:48:25.521Z,35936
2018-08-24T08:49:26.081Z,44704
2018-08-24T08:50:26.647Z,27328
2018-08-24T08:51:27.206Z,38336
2018-08-24T08:52:27.864Z,31392
2018-08-24T08:53:28.439Z,44992
2018-08-24T08:54:28.996Z,78624
2018-08-24T08:55:29.558Z,83296
2018-08-24T08:56:30.132Z,48096
2018-08-24T08:57:30.697Z,32608
2018-08-24T08:58:31.261Z,25888
2018-08-24T08:59:31.834Z,26176
2018-08-24T09:00:32.395Z,22624
2018-08-24T09:01:32.959Z,23872
2018-08-24T09:02:33.525Z,27328
2018-08-24T09:03:34.091Z,29120
2018-08-24T09:04:34.658Z,30784
2018-08-24T09:05:35.224Z,41952
2018-08-24T09:06:35.791Z,28448
2018-08-24T09:07:36.355Z,26048
2018-08-24T09:08:36.920Z,22816
2018-08-24T09:09:37.476Z,23264
2018-08-24T09:10:38.054Z,27104
2018-08-24T09:11:38.612Z,34304
2018-08-24T09:12:39.177Z,32288
2018-08-24T09:13:39.753Z,33856
2018-08-24T09:14:40.303Z,34400
2018-08-24T09:15:40.865Z,33824
2018-08-24T09:16:41.436Z,29184
2018-08-24T09:17:42.002Z,26432
2018-08-24T09:18:42.564Z,28800
2018-08-24T09:19:43.131Z,28512
2018-08-24T09:20:43.697Z,30240
2018-08-24T09:21:44.254Z,52384
2018-08-24T09:22:44.819Z,25472
2018-08-24T09:23:45.398Z,32128
2018-08-24T09:24:45.956Z,80256
2018-08-24T09:25:46.545Z,76992
2018-08-24T09:26:47.078Z,22016
2018-08-24T09:27:47.640Z,19488
2018-08-24T09:28:48.209Z,19488
2018-08-24T09:29:48.769Z,19392
2018-08-24T09:30:49.334Z,20544
2018-08-24T09:31:49.890Z,21664
2018-08-24T09:32:50.490Z,20896
2018-08-24T09:33:51.018Z,19424
2018-08-24T09:34:51.578Z,19872
2018-08-24T09:35:52.194Z,16932
2018-08-24T09:36:52.762Z,16340
2018-08-24T09:37:53.365Z,17708
2018-08-24T09:38:53.895Z,71936
2018-08-24T09:39:54.455Z,29504
2018-08-24T09:40:55.013Z,19908
2018-08-24T09:41:55.577Z,28736
2018-08-24T09:42:56.156Z,75680
2018-08-24T09:43:56.703Z,75168
2018-08-24T09:44:57.272Z,59712
2018-08-24T09:45:57.840Z,73984
2018-08-24T09:46:58.406Z,25280
2018-08-24T09:47:58.973Z,24224
2018-08-24T09:48:59.579Z,23552
2018-08-24T09:50:00.105Z,33120
2018-08-24T09:51:00.671Z,79552
2018-08-24T09:52:01.237Z,28096
2018-08-24T09:53:01.796Z,74432
2018-08-24T09:54:02.362Z,25984
2018-08-24T09:55:02.930Z,77536
2018-08-24T09:56:03.492Z,77856
2018-08-24T09:57:04.059Z,75008
2018-08-24T09:58:04.630Z,79840
2018-08-24T09:59:05.199Z,86336
2018-08-24T10:00:05.771Z,86624
2018-08-24T10:01:06.331Z,53376
2018-08-24T10:02:06.904Z,91840
2018-08-24T10:03:07.470Z,92448
2018-08-24T10:04:08.044Z,36608
2018-08-24T10:05:08.603Z,34816
2018-08-24T10:06:09.204Z,42848
2018-08-24T10:07:09.734Z,34976
2018-08-24T10:08:10.298Z,27360
2018-08-24T10:09:10.864Z,27456
2018-08-24T10:10:11.436Z,26208
2018-08-24T10:11:11.997Z,26208
2018-08-24T10:12:12.564Z,38144
2018-08-24T10:13:13.177Z,49728
2018-08-24T10:14:13.699Z,29088
2018-08-24T10:15:14.271Z,31360
2018-08-24T10:16:14.835Z,43648
2018-08-24T10:17:15.404Z,54272
2018-08-24T10:18:15.972Z,35680
2018-08-24T10:19:16.531Z,34176
2018-08-24T10:20:17.100Z,29472
2018-08-24T10:21:17.666Z,30304
2018-08-24T10:22:18.228Z,62688
2018-08-24T10:23:18.795Z,97568
2018-08-24T10:24:19.357Z,97408
2018-08-24T10:25:19.925Z,55488
2018-08-24T10:26:20.497Z,100032
2018-08-24T10:27:21.065Z,101824
2018-08-24T10:28:21.637Z,47936
2018-08-24T10:29:22.239Z,43200
2018-08-24T10:30:22.769Z,91232
2018-08-24T10:31:23.339Z,90624
2018-08-24T10:32:23.907Z,93856
2018-08-24T10:33:24.478Z,91936
2018-08-24T10:34:25.051Z,94080
2018-08-24T10:35:25.618Z,92480
2018-08-24T10:36:26.188Z,88384
2018-08-24T10:37:26.760Z,90400
2018-08-24T10:38:27.332Z,89600
2018-08-24T10:39:27.899Z,89152
2018-08-24T10:40:28.462Z,58752
2018-08-24T10:41:29.033Z,80352
2018-08-24T10:42:29.604Z,89856
2018-08-24T10:43:30.175Z,20772
2018-08-24T10:44:30.737Z,83488
2018-08-24T10:45:31.308Z,83968
2018-08-24T10:46:31.878Z,82624
2018-08-24T10:47:32.461Z,85856
2018-08-24T10:48:33.020Z,89152
2018-08-24T10:49:33.694Z,90528
2018-08-24T10:50:34.166Z,90560
2018-08-24T10:51:34.729Z,89920
2018-08-24T10:52:35.299Z,89664
2018-08-24T10:53:35.869Z,82368
2018-08-24T10:54:36.444Z,85984
2018-08-24T10:55:37.062Z,72960
2018-08-24T10:56:37.575Z,85344
2018-08-24T10:57:38.149Z,83808
2018-08-24T10:58:38.726Z,79936
2018-08-24T10:59:39.292Z,83520
2018-08-24T11:00:39.868Z,85824
2018-08-24T11:01:40.436Z,24576
2018-08-24T11:02:41.008Z,84864
2018-08-24T11:03:41.629Z,84800
2018-08-24T11:04:42.155Z,84032
2018-08-24T11:05:42.724Z,82528
2018-08-24T11:06:43.295Z,79712
2018-08-24T11:07:43.927Z,80544
2018-08-24T11:08:44.434Z,80768
2018-08-24T11:09:44.998Z,81856
2018-08-24T11:10:45.561Z,76768
2018-08-24T11:11:46.133Z,63008
2018-08-24T11:12:46.698Z,68224
2018-08-24T11:13:47.268Z,75936
2018-08-24T11:14:47.843Z,75968
2018-08-24T11:15:48.414Z,76256
2018-08-24T11:16:49.003Z,78592
2018-08-24T11:17:49.560Z,78880
2018-08-24T11:18:50.123Z,79808
2018-08-24T11:19:50.685Z,79744
2018-08-24T11:20:51.258Z,75616
2018-08-24T11:21:51.830Z,81408
2018-08-24T11:22:52.462Z,83072
2018-08-24T11:23:52.966Z,79584
2018-08-24T11:24:53.532Z,75456
2018-08-24T11:25:54.105Z,74048
2018-08-24T11:26:54.816Z,24672
2018-08-24T11:27:55.240Z,69984
2018-08-24T11:28:55.810Z,71296
2018-08-24T11:29:56.381Z,22336
2018-08-24T11:30:56.957Z,80448
2018-08-24T11:31:57.524Z,76864
2018-08-24T11:32:58.096Z,80864
2018-08-24T11:33:58.711Z,80096
2018-08-24T11:34:59.236Z,75584
2018-08-24T11:35:59.890Z,75904
2018-08-24T11:37:00.380Z,80192
2018-08-24T11:38:00.952Z,79936
2018-08-24T11:39:01.523Z,76608
2018-08-24T11:40:02.094Z,71744
2018-08-24T11:41:02.664Z,60160
2018-08-24T11:42:03.253Z,28448
2018-08-24T11:43:03.802Z,49152
2018-08-24T11:44:04.366Z,53408
2018-08-24T11:45:04.937Z,68160
2018-08-24T11:46:05.511Z,68864
2018-08-24T11:47:06.084Z,67168
2018-08-24T11:48:06.657Z,55136
2018-08-24T11:49:07.227Z,63584
2018-08-24T11:50:07.801Z,67232
2018-08-24T11:51:08.373Z,67680
2018-08-24T11:52:08.943Z,62432
2018-08-24T11:53:09.508Z,73216
2018-08-24T11:54:10.151Z,78432
2018-08-24T11:55:10.638Z,79808
2018-08-24T11:56:11.204Z,84864
2018-08-24T11:57:11.773Z,76960
2018-08-24T11:58:12.348Z,76096
2018-08-24T11:59:12.909Z,72800
2018-08-24T12:00:13.481Z,70240
2018-08-24T12:01:14.052Z,72192
2018-08-24T12:02:14.628Z,79264
2018-08-24T12:03:15.194Z,76256
2018-08-24T12:04:15.766Z,77408
2018-08-24T12:05:16.337Z,58432
2018-08-24T12:06:16.913Z,70720
2018-08-24T12:07:17.505Z,75200
2018-08-24T12:08:18.107Z,72320
2018-08-24T12:09:18.623Z,70528
2018-08-24T12:10:19.195Z,66112
2018-08-24T12:11:19.765Z,69920
2018-08-24T12:12:20.334Z,67552
2018-08-24T12:13:20.902Z,67904
2018-08-24T12:14:21.519Z,66880
2018-08-24T12:15:22.043Z,73760
2018-08-24T12:16:22.607Z,70784
2018-08-24T12:17:23.186Z,72064
2018-08-24T12:18:23.786Z,62816
2018-08-24T12:19:24.325Z,57344
2018-08-24T12:20:24.890Z,63520
2018-08-24T12:21:25.496Z,64736
2018-08-24T12:22:26.024Z,29984
2018-08-24T12:23:26.595Z,30656
2018-08-24T12:24:27.203Z,33184
2018-08-24T12:25:27.740Z,48800
2018-08-24T12:26:28.308Z,77504
2018-08-24T12:27:28.879Z,85184
2018-08-24T12:28:29.450Z,70304
2018-08-24T12:29:30.016Z,81984
2018-08-24T12:30:30.587Z,82400
2018-08-24T12:31:31.151Z,85408
2018-08-24T12:32:31.726Z,83904
2018-08-24T12:33:32.297Z,81024
2018-08-24T12:34:32.872Z,79712
2018-08-24T12:35:33.442Z,76832
2018-08-24T12:36:34.030Z,64000
2018-08-24T12:37:34.588Z,75296
2018-08-24T12:38:35.153Z,69312
2018-08-24T12:39:35.723Z,81248
2018-08-24T12:40:36.296Z,76128
2018-08-24T12:41:36.862Z,72448
2018-08-24T12:42:37.437Z,62784
2018-08-24T12:43:38.078Z,69216
2018-08-24T12:44:38.569Z,68512
2018-08-24T12:45:39.137Z,71840
2018-08-24T12:46:39.716Z,77696
2018-08-24T12:47:40.288Z,82080
2018-08-24T12:48:41.070Z,78400
2018-08-24T12:49:41.637Z,80896
2018-08-24T12:50:42.210Z,81408
2018-08-24T12:51:42.785Z,80864
2018-08-24T12:52:43.364Z,80448
2018-08-24T12:53:43.930Z,75200
2018-08-24T12:54:44.503Z,42816
2018-08-24T12:55:45.075Z,52928
2018-08-24T12:56:45.639Z,29824
2018-08-24T12:57:46.202Z,35360
2018-08-24T12:58:46.775Z,37216
2018-08-24T12:59:47.339Z,70336
2018-08-24T13:00:47.908Z,58880
2018-08-24T13:01:48.476Z,38144
2018-08-24T13:02:49.047Z,68128
2018-08-24T13:03:49.624Z,35360
2018-08-24T13:04:50.197Z,33472
2018-08-24T13:05:50.768Z,31808
2018-08-24T13:06:51.330Z,31264
2018-08-24T13:07:51.905Z,30912
2018-08-24T13:08:52.480Z,29696
2018-08-24T13:09:53.049Z,28192
2018-08-24T13:10:53.611Z,26848
2018-08-24T13:11:54.181Z,26496
2018-08-24T13:12:54.745Z,30432
2018-08-24T13:13:55.307Z,35776
2018-08-24T13:14:55.869Z,60864
2018-08-24T13:15:56.444Z,74560
2018-08-24T13:16:57.016Z,69472
2018-08-24T13:17:57.587Z,88256
2018-08-24T13:18:58.153Z,74464
2018-08-24T13:19:58.721Z,68832
2018-08-24T13:20:59.293Z,48640
2018-08-24T13:21:59.857Z,43104
2018-08-24T13:23:00.426Z,56768
2018-08-24T13:24:01.001Z,46080
2018-08-24T13:25:01.571Z,50752
2018-08-24T13:26:02.133Z,45920
2018-08-24T13:27:02.706Z,47488
2018-08-24T13:28:03.272Z,49088
2018-08-24T13:29:03.849Z,72928
2018-08-24T13:30:04.429Z,49280
2018-08-24T13:31:05.001Z,54912
2018-08-24T13:32:05.574Z,32832
2018-08-24T13:33:06.144Z,30816
2018-08-24T13:34:06.710Z,27552
2018-08-24T13:35:07.275Z,25984
2018-08-24T13:36:07.846Z,25536
2018-08-24T13:37:08.454Z,28288
2018-08-24T13:38:08.985Z,28544
2018-08-24T13:39:09.554Z,30528
2018-08-24T13:40:10.118Z,37504
2018-08-24T13:41:10.690Z,36512
2018-08-24T13:42:11.300Z,36032
2018-08-24T13:43:11.822Z,37248